createdAt,value
2022-08-10T00:00:16.625Z,101859.44
2022-08-10T00:03:37.835Z,101854.09
2022-08-10T00:06:40.261Z,101857.69
2022-08-10T00:09:50.626Z,101855.91
2022-08-10T00:12:55.353Z,101853.22
2022-08-10T00:15:57.725Z,101858.56
2022-08-10T00:19:00.487Z,101854.13
2022-08-10T00:22:02.595Z,101853.22
2022-08-10T00:25:05.911Z,101854.09
2022-08-10T00:28:08.531Z,101852.31
2022-08-10T00:31:10.906Z,101841.63
2022-08-10T00:34:13.171Z,101837.16
2022-08-10T00:37:17.383Z,101850.50
2022-08-10T00:40:19.624Z,101846.97
2022-08-10T00:43:40.549Z,101845.16
2022-08-10T00:46:42.653Z,101852.31
2022-08-10T00:49:45.120Z,101850.50
2022-08-10T00:52:47.610Z,101843.38
2022-08-10T00:57:14.520Z,101853.19
2022-08-10T00:59:11.982Z,101858.53
2022-08-10T01:02:14.402Z,101856.72
2022-08-10T01:05:16.643Z,101857.63
2022-08-10T01:08:30.543Z,101858.53
2022-08-10T01:12:34.236Z,101858.53
2022-08-10T01:15:08.718Z,101859.41
2022-08-10T01:18:29.629Z,101857.63
2022-08-10T01:22:09.354Z,101857.63
2022-08-10T01:25:11.680Z,101850.47
2022-08-10T01:28:51.700Z,101854.06
2022-08-10T01:31:57.053Z,101854.03
2022-08-10T01:35:11.001Z,101854.91
2022-08-10T01:38:40.803Z,101844.19
2022-08-10T01:41:46.595Z,101846.03
2022-08-10T01:44:56.011Z,101852.22
2022-08-10T01:48:18.902Z,101854.00
2022-08-10T01:51:32.740Z,101865.56
2022-08-10T01:54:35.532Z,101857.56
2022-08-10T01:57:39.374Z,101858.44
2022-08-10T02:00:43.361Z,101853.97
2022-08-10T02:04:03.684Z,101847.72
2022-08-10T02:07:11.328Z,101865.50
2022-08-10T02:10:15.519Z,101861.94
2022-08-10T02:13:19.085Z,101869.97
2022-08-10T02:16:21.745Z,101867.31
2022-08-10T02:19:25.229Z,101865.53
2022-08-10T02:22:45.897Z,101870.84
2022-08-10T02:25:49.735Z,101877.97
2022-08-10T02:28:52.865Z,101865.47
2022-08-10T02:31:56.407Z,101870.81
2022-08-10T02:35:00.718Z,101876.19
2022-08-10T02:38:06.605Z,101878.84
2022-08-10T02:45:02.830Z,101876.16
2022-08-10T02:45:21.566Z,101877.03
2022-08-10T02:48:24.348Z,101876.97
2022-08-10T02:52:07.022Z,101883.22
2022-08-10T02:55:27.272Z,101870.75
2022-08-10T02:58:42.489Z,101876.09
2022-08-10T03:01:49.444Z,101880.53
2022-08-10T03:04:58.378Z,101875.22
2022-08-10T03:08:03.488Z,101886.81
2022-08-10T03:11:06.750Z,101885.88
2022-08-10T03:14:10.187Z,101882.31
2022-08-10T03:17:12.879Z,101891.22
2022-08-10T03:20:37.309Z,101894.78
2022-08-10T03:23:38.423Z,101891.19
2022-08-10T03:26:40.937Z,101884.88
2022-08-10T03:30:31.929Z,101895.59
2022-08-10T03:33:07.808Z,101889.38
2022-08-10T03:36:40.744Z,101893.78
2022-08-10T03:39:32.913Z,101890.31
2022-08-10T03:42:37.525Z,101893.81
2022-08-10T03:45:55.470Z,101894.72
2022-08-10T03:49:02.184Z,101897.44
2022-08-10T03:52:06.648Z,101895.56
2022-08-10T03:55:09.753Z,101901.81
2022-08-10T03:58:12.502Z,101905.47
2022-08-10T04:01:15.923Z,101899.25
2022-08-10T04:04:23.762Z,101902.81
2022-08-10T04:07:26.961Z,101907.28
2022-08-10T04:10:29.693Z,101910.84
2022-08-10T04:13:32.105Z,101909.97
2022-08-10T04:16:34.297Z,101910.88
2022-08-10T04:19:46.829Z,101917.09
2022-08-10T04:22:51.945Z,101918.03
2022-08-10T04:25:54.441Z,101917.16
2022-08-10T04:28:56.611Z,101920.78
2022-08-10T04:31:59.885Z,101920.81
2022-08-10T04:35:04.280Z,101911.91
2022-08-10T04:38:07.429Z,101924.41
2022-08-10T04:41:10.277Z,101913.72
2022-08-10T04:44:12.764Z,101919.09
2022-08-10T04:47:16.893Z,101917.31
2022-08-10T04:50:37.484Z,101927.16
2022-08-10T04:54:04.596Z,101923.63
2022-08-10T04:57:03.341Z,101929.00
2022-08-10T05:00:08.752Z,101919.22
2022-08-10T05:03:21.716Z,101925.47
2022-08-10T05:06:25.236Z,101929.06
2022-08-10T05:09:27.537Z,101914.78
2022-08-10T05:12:29.809Z,101928.22
2022-08-10T05:15:32.184Z,101921.94
2022-08-10T05:18:34.721Z,101925.53
2022-08-10T05:21:56.406Z,101931.78
2022-08-10T05:24:59.944Z,101928.19
2022-08-10T05:28:06.510Z,101931.72
2022-08-10T05:31:09.057Z,101937.06
2022-08-10T05:34:20.549Z,101928.97
2022-08-10T05:38:08.963Z,101924.41
2022-08-10T05:40:48.542Z,101926.13
2022-08-10T05:43:51.921Z,101929.63
2022-08-10T05:46:54.252Z,101937.56
2022-08-10T05:49:56.730Z,101932.16
2022-08-10T05:53:02.591Z,101927.53
2022-08-10T05:56:21.511Z,101923.72
2022-08-10T06:00:29.387Z,101932.28
2022-08-10T06:02:54.900Z,101934.50
2022-08-10T06:05:58.778Z,101925.88
2022-08-10T06:09:01.457Z,101926.25
2022-08-10T06:12:27.859Z,101934.63
2022-08-10T06:15:50.274Z,101934.81
2022-08-10T06:18:51.367Z,101933.59
2022-08-10T06:22:01.344Z,101924.53
2022-08-10T06:28:28.956Z,101921.31
2022-08-10T06:31:48.548Z,101927.69
2022-08-10T06:34:55.036Z,101923.25
2022-08-10T06:37:59.781Z,101925.38
2022-08-10T06:41:08.392Z,101927.53
2022-08-10T06:44:16.572Z,101929.28
2022-08-10T06:47:22.917Z,101913.69
2022-08-10T06:50:55.899Z,101912.63
2022-08-10T06:54:07.933Z,101920.00
2022-08-10T06:57:18.854Z,101906.72
2022-08-10T07:00:21.218Z,101907.06
2022-08-10T07:03:34.419Z,101914.56
2022-08-10T07:06:37.524Z,101913.56
2022-08-10T07:09:40.324Z,101906.28
2022-08-10T07:12:43.603Z,101902.03
2022-08-10T07:15:59.797Z,101899.00
2022-08-10T07:19:03.569Z,101895.34
2022-08-10T07:22:06.718Z,101901.22
2022-08-10T07:25:10.275Z,101894.34
2022-08-10T07:28:13.892Z,101904.00
2022-08-10T07:31:55.040Z,101901.31
2022-08-10T07:34:41.695Z,101902.41
2022-08-10T07:37:49.506Z,101898.47
2022-08-10T07:40:53.644Z,101900.44
2022-08-10T07:43:57.285Z,101900.31
2022-08-10T07:47:03.008Z,101900.19
2022-08-10T07:50:08.350Z,101900.06
2022-08-10T07:53:13.877Z,101894.44
2022-08-10T07:56:45.479Z,101896.50
2022-08-10T07:59:45.077Z,101897.47
2022-08-10T08:02:56.044Z,101906.22
2022-08-10T08:06:03.282Z,101906.41
2022-08-10T08:09:11.772Z,101899.72
2022-08-10T08:12:15.864Z,101902.22
2022-08-10T08:16:20.344Z,101897.31
2022-08-10T08:19:03.916Z,101896.84
2022-08-10T08:24:04.410Z,101891.56
2022-08-10T08:25:30.749Z,101903.06
2022-08-10T08:28:34.548Z,101889.88
2022-08-10T08:32:01.168Z,101890.84
2022-08-10T08:35:06.688Z,101891.88
2022-08-10T08:38:34.012Z,101885.16
2022-08-10T08:41:50.565Z,101892.47
2022-08-10T08:45:15.408Z,101889.91
2022-08-10T08:48:20.774Z,101890.16
2022-08-10T08:52:09.893Z,101885.59
2022-08-10T08:56:03.921Z,101888.13
2022-08-10T08:59:00.881Z,101888.16
2022-08-10T09:02:21.512Z,101882.50
2022-08-10T09:05:58.454Z,101884.16
2022-08-10T09:09:15.642Z,101879.44
2022-08-10T09:12:49.063Z,101869.66
2022-08-10T09:16:13.993Z,101877.69
2022-08-10T09:19:38.619Z,101874.81
2022-08-10T09:22:47.435Z,101867.63
2022-08-10T09:25:56.080Z,101870.56
2022-08-10T09:29:12.354Z,101873.53
2022-08-10T09:36:13.860Z,101866.03
2022-08-10T09:36:21.608Z,101865.41
2022-08-10T09:40:56.067Z,101868.84
2022-08-10T09:43:32.156Z,101864.41
2022-08-10T09:46:59.408Z,101865.94
2022-08-10T09:50:10.056Z,101858.88
2022-08-10T09:53:40.519Z,101862.38
2022-08-10T09:57:41.226Z,101860.59
2022-08-10T10:00:46.970Z,101847.91
2022-08-10T10:04:34.316Z,101850.28
2022-08-10T10:07:40.450Z,101842.22
2022-08-10T10:11:08.917Z,101838.53
2022-08-10T10:14:17.078Z,101839.84
2022-08-10T10:17:27.103Z,101832.84
2022-08-10T10:20:44.826Z,101831.06
2022-08-10T10:24:21.619Z,101833.69
2022-08-10T10:27:48.210Z,101834.34
2022-08-10T10:31:32.733Z,101831.09
2022-08-10T10:34:46.495Z,101831.44
2022-08-10T10:38:01.151Z,101832.94
2022-08-10T10:42:03.327Z,101827.78
2022-08-10T10:45:18.643Z,101824.38
2022-08-10T10:48:33.063Z,101830.63
2022-08-10T10:51:45.491Z,101823.75
2022-08-10T10:54:55.851Z,101813.88
2022-08-10T10:58:20.321Z,101808.47
2022-08-10T11:01:44.729Z,101796.38
2022-08-10T11:05:29.197Z,101790.03
2022-08-10T11:08:38.635Z,101789.22
2022-08-10T11:12:00.669Z,101790.34
2022-08-10T11:15:28.872Z,101795.44
2022-08-10T11:19:08.739Z,101797.25
2022-08-10T11:22:30.758Z,101789.72
2022-08-10T11:25:43.007Z,101786.94
2022-08-10T11:28:51.985Z,101782.88
2022-08-10T11:32:28.819Z,101787.03
2022-08-10T11:35:48.775Z,101774.97
2022-08-10T11:39:13.433Z,101770.94
2022-08-10T11:42:42.795Z,101779.47
2022-08-10T11:46:07.677Z,101776.75
2022-08-10T11:49:22.115Z,101772.59
2022-08-10T11:52:52.441Z,101780.22
2022-08-10T11:55:57.376Z,101778.19
2022-08-10T11:59:18.332Z,101772.91
2022-08-10T12:02:37.456Z,101768.88
2022-08-10T12:05:51.955Z,101766.31
2022-08-10T12:10:11.122Z,101771.34
2022-08-10T12:12:21.028Z,101766.41
2022-08-10T12:15:29.830Z,101770.13
2022-08-10T12:18:50.714Z,101763.78
2022-08-10T12:22:05.661Z,101755.06
2022-08-10T12:25:54.919Z,101747.13
2022-08-10T12:29:03.732Z,101752.78
2022-08-10T12:32:25.486Z,101737.47
2022-08-10T12:35:33.242Z,101741.72
2022-08-10T12:38:40.156Z,101734.16
2022-08-10T12:41:50.533Z,101729.06
2022-08-10T12:45:03.148Z,101737.00
2022-08-10T12:48:15.095Z,101730.47
2022-08-10T12:51:38.849Z,101730.22
2022-08-10T12:54:50.782Z,101725.41
2022-08-10T12:57:56.005Z,101720.34
2022-08-10T13:01:17.773Z,101721.78
2022-08-10T13:04:28.068Z,101727.06
2022-08-10T13:08:24.933Z,101723.53
2022-08-10T13:11:02.224Z,101705.16
2022-08-10T13:14:11.078Z,101705.59
2022-08-10T13:17:19.788Z,101705.09
2022-08-10T13:20:30.419Z,101705.06
2022-08-10T13:23:38.442Z,101698.78
2022-08-10T13:27:26.057Z,101695.38
2022-08-10T13:30:13.503Z,101692.44
2022-08-10T13:34:35.827Z,101691.09
2022-08-10T13:36:42.193Z,101699.34
2022-08-10T13:39:58.829Z,101697.78
2022-08-10T13:43:06.997Z,101699.50
2022-08-10T13:46:22.661Z,101706.69
2022-08-10T13:49:29.622Z,101700.28
2022-08-10T13:52:33.462Z,101704.41
2022-08-10T13:55:54.538Z,101696.22
2022-08-10T13:58:59.320Z,101707.13
2022-08-10T14:02:03.385Z,101716.56
2022-08-10T14:05:07.428Z,101703.53
2022-08-10T14:08:15.177Z,101706.28
2022-08-10T14:11:19.109Z,101694.94
2022-08-10T14:14:22.294Z,101701.91
2022-08-10T14:17:25.980Z,101692.59
2022-08-10T14:20:29.306Z,101692.66
2022-08-10T14:23:32.364Z,101679.81
2022-08-10T14:26:34.628Z,101687.94
2022-08-10T14:29:43.494Z,101690.50
2022-08-10T14:32:48.510Z,101688.47
2022-08-10T14:36:19.217Z,101690.69
2022-08-10T14:39:25.997Z,101687.34
2022-08-10T14:42:32.459Z,101691.84
2022-08-10T14:45:36.628Z,101681.00
2022-08-10T14:48:45.348Z,101680.72
2022-08-10T14:51:50.110Z,101683.00
2022-08-10T14:54:55.182Z,101674.56
2022-08-10T14:58:19.336Z,101668.00
2022-08-10T15:01:21.996Z,101675.50
2022-08-10T15:04:26.810Z,101677.19
2022-08-10T15:07:33.396Z,101668.19
2022-08-10T15:10:36.346Z,101660.78
2022-08-10T15:13:44.680Z,101672.00
2022-08-10T15:17:08.452Z,101663.59
2022-08-10T15:20:20.686Z,101662.34
2022-08-10T15:23:30.724Z,101656.38
2022-08-10T15:26:35.847Z,101651.56
2022-08-10T15:29:57.711Z,101652.28
2022-08-10T15:34:02.579Z,101652.97
2022-08-10T15:37:39.966Z,101649.84
2022-08-10T15:40:35.830Z,101641.44
2022-08-10T15:43:44.514Z,101646.03
2022-08-10T15:46:53.166Z,101641.25
2022-08-10T15:50:07.766Z,101639.84
2022-08-10T15:53:16.462Z,101642.09
2022-08-10T15:56:28.347Z,101642.78
2022-08-10T16:00:08.979Z,101648.03
2022-08-10T16:03:17.363Z,101651.19
2022-08-10T16:06:28.481Z,101640.19
2022-08-10T16:10:23.093Z,101645.16
2022-08-10T16:13:59.787Z,101654.69
2022-08-10T16:16:36.306Z,101645.94
2022-08-10T16:19:50.136Z,101645.22
2022-08-10T16:22:56.203Z,101638.69
2022-08-10T16:26:05.108Z,101635.94
2022-08-10T16:29:20.538Z,101635.41
2022-08-10T16:32:23.580Z,101638.59
2022-08-10T16:35:25.762Z,101634.53
2022-08-10T16:38:28.625Z,101635.59
2022-08-10T16:42:02.882Z,101642.81
2022-08-10T16:45:02.821Z,101631.44
2022-08-10T16:48:06.726Z,101635.16
2022-08-10T16:51:14.111Z,101633.66
2022-08-10T16:54:26.286Z,101637.53
2022-08-10T16:57:30.062Z,101629.34
2022-08-10T17:00:32.833Z,101627.16
2022-08-10T17:04:06.172Z,101638.78
2022-08-10T17:07:08.191Z,101637.00
2022-08-10T17:10:15.183Z,101641.28
2022-08-10T17:13:21.184Z,101641.88
2022-08-10T17:16:24.550Z,101649.00
2022-08-10T17:19:27.819Z,101641.66
2022-08-10T17:22:35.574Z,101642.53
2022-08-10T17:25:48.586Z,101654.00
2022-08-10T17:28:56.194Z,101657.16
2022-08-10T17:32:01.091Z,101649.81
2022-08-10T17:35:09.278Z,101645.56
2022-08-10T17:38:24.271Z,101655.91
2022-08-10T17:41:32.726Z,101657.47
2022-08-10T17:44:36.842Z,101647.19
2022-08-10T17:47:57.933Z,101654.38
2022-08-10T17:51:00.750Z,101648.53
2022-08-10T17:54:09.149Z,101658.06
2022-08-10T17:57:18.588Z,101661.38
2022-08-10T18:00:22.278Z,101660.09
2022-08-10T18:03:27.855Z,101666.00
2022-08-10T18:06:30.752Z,101666.69
2022-08-10T18:09:46.519Z,101670.13
2022-08-10T18:12:54.580Z,101668.94
2022-08-10T18:15:57.239Z,101670.31
2022-08-10T18:19:07.680Z,101669.78
2022-08-10T18:22:12.129Z,101678.31
2022-08-10T18:25:20.494Z,101679.75
2022-08-10T18:31:25.804Z,101677.69
2022-08-10T18:34:30.418Z,101680.94
2022-08-10T18:37:33.539Z,101679.84
2022-08-10T18:40:38.541Z,101684.78
2022-08-10T18:44:07.145Z,101691.59
2022-08-10T18:47:30.533Z,101684.09
2022-08-10T18:50:37.761Z,101689.16
2022-08-10T18:53:48.624Z,101689.72
2022-08-10T18:56:59.361Z,101686.88
2022-08-10T19:00:08.799Z,101700.09
2022-08-10T19:03:26.993Z,101691.84
2022-08-10T19:06:51.194Z,101690.56
2022-08-10T19:10:12.212Z,101696.72
2022-08-10T19:13:34.406Z,101697.06
2022-08-10T19:16:58.722Z,101693.75
2022-08-10T19:20:13.072Z,101703.91
2022-08-10T19:23:52.839Z,101707.88
2022-08-10T19:27:08.595Z,101712.81
2022-08-10T19:30:16.251Z,101714.19
2022-08-10T19:33:42.703Z,101713.63
2022-08-10T19:37:05.345Z,101708.44
2022-08-10T19:40:44.434Z,101709.72
2022-08-10T19:44:03.666Z,101710.19
2022-08-10T19:47:12.283Z,101714.91
2022-08-10T19:50:19.644Z,101718.66
2022-08-10T19:53:46.502Z,101717.09
2022-08-10T19:57:04.280Z,101720.03
2022-08-10T20:00:18.491Z,101720.25
2022-08-10T20:03:34.490Z,101722.31
2022-08-10T20:06:48.237Z,101716.25
2022-08-10T20:10:00.756Z,101725.56
2022-08-10T20:13:10.836Z,101734.75
2022-08-10T20:16:22.975Z,101717.00
2022-08-10T20:20:06.589Z,101727.00
2022-08-10T20:23:14.218Z,101721.88
2022-08-10T20:26:33.336Z,101723.03
2022-08-10T20:29:57.299Z,101720.47
2022-08-10T20:33:28.397Z,101716.16
2022-08-10T20:36:31.876Z,101721.75
2022-08-10T20:39:39.389Z,101716.50
2022-08-10T20:42:50.409Z,101730.97
2022-08-10T20:46:15.203Z,101720.38
2022-08-10T20:49:39.754Z,101721.38
2022-08-10T20:52:44.278Z,101714.38
2022-08-10T20:55:55.823Z,101714.50
2022-08-10T20:59:08.732Z,101709.19
2022-08-10T21:02:29.812Z,101707.41
2022-08-10T21:06:09.153Z,101712.00
2022-08-10T21:09:37.443Z,101708.41
2022-08-10T21:12:49.953Z,101722.00
2022-08-10T21:15:52.691Z,101711.38
2022-08-10T21:19:27.789Z,101712.38
2022-08-10T21:22:42.448Z,101718.75
2022-08-10T21:26:07.432Z,101716.06
2022-08-10T21:29:41.591Z,101715.22
2022-08-10T21:33:21.014Z,101711.75
2022-08-10T21:36:32.293Z,101714.59
2022-08-10T21:39:58.279Z,101711.03
2022-08-10T21:43:44.815Z,101719.16
2022-08-10T21:47:39.997Z,101722.75
2022-08-10T21:51:05.907Z,101725.56
2022-08-10T21:54:35.478Z,101722.91
2022-08-10T21:58:16.161Z,101723.00
2022-08-10T22:01:51.649Z,101726.69
2022-08-10T22:05:17.951Z,101716.88
2022-08-10T22:08:51.914Z,101717.75
2022-08-10T22:12:24.974Z,101727.69
2022-08-10T22:16:10.873Z,101726.81
2022-08-10T22:19:34.256Z,101715.28
2022-08-10T22:23:03.404Z,101726.00
2022-08-10T22:27:01.227Z,101713.50
2022-08-10T22:30:23.649Z,101721.56
2022-08-10T22:34:09.756Z,101718.06
2022-08-10T22:38:10.554Z,101715.41
2022-08-10T22:41:56.571Z,101714.59
2022-08-10T22:45:19.531Z,101711.00
2022-08-10T22:48:40.730Z,101710.13
2022-08-10T22:52:01.268Z,101714.63
2022-08-10T22:55:28.112Z,101708.41
2022-08-10T22:58:42.083Z,101697.75
2022-08-10T23:02:07.936Z,101701.28
2022-08-10T23:05:13.561Z,101695.06
2022-08-10T23:08:30.211Z,101699.53
2022-08-10T23:11:36.982Z,101704.91
2022-08-10T23:14:41.533Z,101701.38
2022-08-10T23:18:23.024Z,101702.25
2022-08-10T23:22:00.067Z,101710.28
2022-08-10T23:25:09.839Z,101718.38
2022-08-10T23:28:14.662Z,101717.50
2022-08-10T23:32:01.170Z,101711.25
2022-08-10T23:34:46.224Z,101707.69
2022-08-10T23:38:09.935Z,101699.66
2022-08-10T23:41:12.708Z,101700.56
2022-08-10T23:44:21.048Z,101713.97
2022-08-10T23:47:28.128Z,101704.16
2022-08-10T23:50:32.471Z,101696.16
2022-08-10T23:53:39.057Z,101706.81
2022-08-10T23:56:47.780Z,101705.06
2022-08-10T23:59:53.408Z,101705.06
